createdAt,value
2022-10-22T00:00:52.462Z,26.08
2022-10-22T00:03:40.836Z,24.85
2022-10-22T00:06:10.799Z,22.58
2022-10-22T00:08:38.476Z,24.50
2022-10-22T00:11:11.096Z,23.15
2022-10-22T00:13:41.324Z,20.40
2022-10-22T00:16:09.432Z,22.65
2022-10-22T00:18:36.900Z,23.35
2022-10-22T00:21:05.882Z,24.02
2022-10-22T00:23:35.530Z,23.48
2022-10-22T00:26:05.353Z,27.35
2022-10-22T00:28:32.460Z,22.85
2022-10-22T00:31:01.140Z,26.00
2022-10-22T00:33:33.763Z,26.05
2022-10-22T00:36:01.124Z,25.58
2022-10-22T00:38:28.113Z,25.52
2022-10-22T00:40:56.012Z,25.27
2022-10-22T00:43:23.458Z,26.63
2022-10-22T00:45:50.723Z,26.67
2022-10-22T00:48:24.440Z,26.42
2022-10-22T00:50:56.012Z,26.23
2022-10-22T00:53:54.439Z,24.88
2022-10-22T00:56:25.803Z,23.35
2022-10-22T00:58:57.745Z,25.30
2022-10-22T01:01:31.530Z,39.97
2022-10-22T01:03:59.336Z,23.73
2022-10-22T01:06:32.257Z,22.30
2022-10-22T01:09:08.512Z,22.60
2022-10-22T01:12:01.649Z,24.65
2022-10-22T01:14:50.592Z,21.67
2022-10-22T01:17:43.371Z,23.83
2022-10-22T01:20:39.466Z,18.92
2022-10-22T01:23:06.907Z,22.83
2022-10-22T01:26:18.555Z,25.30
2022-10-22T01:29:06.052Z,29.00
2022-10-22T01:31:41.586Z,25.23
2022-10-22T01:34:11.924Z,24.08
2022-10-22T01:36:39.583Z,23.98
2022-10-22T01:39:08.756Z,23.85
2022-10-22T01:41:36.433Z,24.02
2022-10-22T01:44:03.927Z,25.45
2022-10-22T01:46:31.165Z,23.25
2022-10-22T01:49:13.250Z,25.08
2022-10-22T01:51:54.452Z,21.25
2022-10-22T01:54:37.059Z,22.63
2022-10-22T01:57:23.916Z,22.02
2022-10-22T02:00:07.890Z,23.20
2022-10-22T02:02:54.901Z,21.73
2022-10-22T02:05:44.875Z,24.92
2022-10-22T02:08:24.711Z,23.25
2022-10-22T02:10:53.304Z,25.17
2022-10-22T02:13:35.235Z,24.95
2022-10-22T02:16:06.639Z,24.77
2022-10-22T02:18:40.239Z,28.55
2022-10-22T02:23:40.069Z,22.48
2022-10-22T02:26:14.693Z,22.80
2022-10-22T02:28:58.667Z,24.75
2022-10-22T02:31:35.611Z,24.20
2022-10-22T02:34:08.289Z,22.00
2022-10-22T02:36:40.613Z,25.77
2022-10-22T02:39:09.580Z,26.58
2022-10-22T02:41:37.929Z,24.23
2022-10-22T02:44:11.039Z,23.17
2022-10-22T02:46:40.125Z,27.83
2022-10-22T02:49:07.571Z,23.83
2022-10-22T02:51:34.931Z,28.10
2022-10-22T02:54:02.153Z,22.40
2022-10-22T02:56:29.543Z,28.05
2022-10-22T02:58:56.647Z,26.90
2022-10-22T03:01:24.444Z,26.52
2022-10-22T03:03:51.590Z,23.30
2022-10-22T03:06:18.999Z,25.42
2022-10-22T03:08:46.344Z,22.33
2022-10-22T03:11:13.809Z,22.95
2022-10-22T03:13:40.873Z,25.83
2022-10-22T03:16:08.522Z,26.67
2022-10-22T03:18:35.925Z,24.27
2022-10-22T03:21:09.937Z,28.98
2022-10-22T03:23:41.389Z,22.60
2022-10-22T03:26:10.486Z,24.77
2022-10-22T03:28:39.841Z,25.27
2022-10-22T03:31:07.424Z,23.63
2022-10-22T03:33:34.550Z,23.48
2022-10-22T03:36:02.255Z,28.60
2022-10-22T03:38:30.368Z,26.45
2022-10-22T03:40:58.251Z,27.67
2022-10-22T03:43:25.483Z,23.35
2022-10-22T03:45:52.960Z,23.23
2022-10-22T03:48:20.523Z,29.52
2022-10-22T03:50:50.846Z,24.92
2022-10-22T03:53:18.049Z,21.98
2022-10-22T03:55:45.318Z,27.52
2022-10-22T03:58:12.546Z,22.60
2022-10-22T04:00:40.173Z,26.58
2022-10-22T04:03:07.560Z,20.45
2022-10-22T04:05:35.062Z,27.42
2022-10-22T04:08:02.324Z,26.40
2022-10-22T04:10:29.653Z,27.73
2022-10-22T04:12:56.779Z,26.05
2022-10-22T04:15:24.274Z,27.63
2022-10-22T04:17:51.270Z,25.50
2022-10-22T04:20:18.690Z,23.55
2022-10-22T04:22:46.078Z,26.52
2022-10-22T04:25:13.488Z,23.80
2022-10-22T04:27:40.757Z,25.77
2022-10-22T04:30:09.126Z,29.40
2022-10-22T04:32:36.326Z,21.67
2022-10-22T04:35:03.987Z,24.73
2022-10-22T04:37:31.395Z,24.38
2022-10-22T04:39:59.108Z,28.00
2022-10-22T04:42:26.298Z,36.50
2022-10-22T04:44:53.904Z,29.88
2022-10-22T04:47:21.308Z,30.58
2022-10-22T04:49:48.868Z,31.08
2022-10-22T04:52:16.080Z,26.25
2022-10-22T04:54:43.844Z,28.70
2022-10-22T04:57:10.930Z,27.95
2022-10-22T04:59:38.354Z,33.05
2022-10-22T05:02:08.024Z,30.95
2022-10-22T05:04:35.314Z,28.50
2022-10-22T05:07:03.485Z,28.38
2022-10-22T05:09:30.856Z,31.20
2022-10-22T05:11:57.971Z,28.88
2022-10-22T05:14:25.837Z,31.92
2022-10-22T05:16:55.466Z,31.00
2022-10-22T05:19:28.105Z,31.58
2022-10-22T05:21:58.171Z,33.07
2022-10-22T05:24:27.091Z,34.70
2022-10-22T05:26:56.082Z,34.25
2022-10-22T05:29:24.304Z,33.78
2022-10-22T05:31:51.689Z,39.80
2022-10-22T05:34:19.487Z,38.63
2022-10-22T05:36:46.661Z,42.75
2022-10-22T05:39:14.249Z,36.60
2022-10-22T05:41:43.353Z,36.35
2022-10-22T05:44:13.980Z,31.25
2022-10-22T05:46:41.806Z,34.50
2022-10-22T05:49:13.509Z,36.03
2022-10-22T05:51:40.587Z,31.55
2022-10-22T05:54:19.811Z,34.00
2022-10-22T05:56:46.938Z,33.63
2022-10-22T05:59:14.451Z,33.75
2022-10-22T06:01:41.718Z,33.35
2022-10-22T06:04:11.935Z,35.15
2022-10-22T06:06:51.334Z,31.10
2022-10-22T06:09:26.493Z,30.33
2022-10-22T06:11:54.874Z,29.75
2022-10-22T06:14:22.386Z,29.10
2022-10-22T06:16:53.147Z,32.17
2022-10-22T06:19:23.104Z,28.55
2022-10-22T06:21:50.376Z,30.73
2022-10-22T06:24:17.704Z,27.45
2022-10-22T06:26:50.279Z,29.15
2022-10-22T06:29:18.169Z,28.98
2022-10-22T06:31:45.786Z,30.35
2022-10-22T06:34:16.244Z,30.58
2022-10-22T06:36:44.804Z,30.35
2022-10-22T06:39:18.958Z,31.80
2022-10-22T06:41:46.113Z,31.77
2022-10-22T06:44:18.993Z,31.42
2022-10-22T06:46:46.156Z,33.93
2022-10-22T06:49:15.559Z,36.70
2022-10-22T06:51:43.530Z,32.28
2022-10-22T06:54:12.087Z,28.13
2022-10-22T06:56:39.320Z,30.23
2022-10-22T06:59:06.831Z,31.63
2022-10-22T07:01:35.980Z,33.78
2022-10-22T07:04:05.013Z,34.45
2022-10-22T07:06:32.498Z,35.30
2022-10-22T07:09:00.442Z,31.27
2022-10-22T07:11:30.872Z,37.53
2022-10-22T07:14:00.680Z,37.10
2022-10-22T07:16:31.048Z,39.22
2022-10-22T07:19:04.072Z,39.80
2022-10-22T07:21:31.985Z,39.42
2022-10-22T07:23:59.652Z,33.67
2022-10-22T07:26:28.443Z,39.38
2022-10-22T07:28:55.740Z,38.75
2022-10-22T07:31:23.251Z,41.63
2022-10-22T07:33:50.807Z,45.05
2022-10-22T07:36:22.401Z,42.47
2022-10-22T07:38:55.335Z,42.28
2022-10-22T07:41:22.495Z,43.60
2022-10-22T07:43:50.312Z,48.70
2022-10-22T07:46:17.399Z,37.42
2022-10-22T07:48:44.883Z,43.05
2022-10-22T07:51:12.036Z,39.10
2022-10-22T07:53:39.642Z,34.47
2022-10-22T07:56:07.432Z,36.67
2022-10-22T07:58:34.987Z,35.75
2022-10-22T08:01:03.291Z,38.38
2022-10-22T08:03:30.664Z,34.95
2022-10-22T08:05:58.379Z,36.05
2022-10-22T08:08:30.457Z,31.38
2022-10-22T08:11:00.166Z,33.45
2022-10-22T08:13:27.612Z,31.98
2022-10-22T08:15:57.395Z,28.20
2022-10-22T08:18:26.592Z,27.75
2022-10-22T08:20:54.217Z,28.33
2022-10-22T08:23:27.577Z,30.02
2022-10-22T08:25:58.443Z,34.42
2022-10-22T08:28:26.176Z,28.25
2022-10-22T08:30:53.247Z,31.95
2022-10-22T08:33:21.079Z,29.17
2022-10-22T08:35:49.840Z,26.73
2022-10-22T08:38:18.240Z,26.48
2022-10-22T08:40:50.265Z,28.77
2022-10-22T08:43:29.605Z,27.98
2022-10-22T08:46:21.782Z,29.80
2022-10-22T08:48:55.003Z,24.08
2022-10-22T08:51:27.692Z,26.10
2022-10-22T08:54:13.479Z,24.92
2022-10-22T08:56:48.268Z,27.17
2022-10-22T08:59:35.801Z,24.85
2022-10-22T09:02:09.668Z,27.35
2022-10-22T09:04:50.924Z,28.08
2022-10-22T09:07:18.587Z,29.83
2022-10-22T09:09:50.811Z,25.23
2022-10-22T09:12:20.273Z,25.63
2022-10-22T09:14:48.589Z,27.48
2022-10-22T09:17:36.263Z,27.38
2022-10-22T09:20:15.645Z,24.30
2022-10-22T09:23:01.290Z,19.98
2022-10-22T09:25:35.153Z,21.15
2022-10-22T09:28:04.839Z,23.50
2022-10-22T09:30:35.971Z,20.30
2022-10-22T09:33:19.180Z,23.65
2022-10-22T09:35:49.142Z,19.50
2022-10-22T09:38:19.168Z,20.63
2022-10-22T09:40:53.095Z,19.33
2022-10-22T09:43:20.928Z,19.13
2022-10-22T09:45:57.446Z,17.35
2022-10-22T09:48:40.835Z,17.55
2022-10-22T09:51:11.229Z,13.77
2022-10-22T09:53:47.466Z,17.25
2022-10-22T09:56:24.860Z,15.50
2022-10-22T09:58:55.841Z,16.83
2022-10-22T10:01:27.708Z,15.25
2022-10-22T10:04:05.622Z,16.67
2022-10-22T10:06:36.694Z,18.58
2022-10-22T10:09:14.353Z,16.02
2022-10-22T10:12:16.691Z,19.85
2022-10-22T10:15:05.404Z,20.23
2022-10-22T10:18:12.463Z,18.45
2022-10-22T10:20:39.681Z,16.52
2022-10-22T10:23:21.752Z,17.20
2022-10-22T10:26:05.288Z,19.55
2022-10-22T10:28:38.522Z,15.82
2022-10-22T10:31:18.039Z,19.83
2022-10-22T10:33:52.368Z,15.40
2022-10-22T10:36:43.907Z,16.27
2022-10-22T10:39:17.374Z,15.63
2022-10-22T10:41:50.887Z,16.42
2022-10-22T10:44:33.465Z,17.48
2022-10-22T10:47:35.694Z,17.00
2022-10-22T10:50:20.812Z,16.08
2022-10-22T10:53:00.760Z,17.50
2022-10-22T10:55:34.580Z,16.83
2022-10-22T10:58:24.788Z,14.77
2022-10-22T11:01:10.429Z,15.10
2022-10-22T11:03:46.484Z,15.88
2022-10-22T11:06:23.032Z,16.88
2022-10-22T11:09:04.518Z,17.63
2022-10-22T11:11:54.104Z,15.75
2022-10-22T11:14:30.277Z,16.20
2022-10-22T11:17:04.610Z,14.85
2022-10-22T11:20:16.319Z,13.43
2022-10-22T11:23:17.530Z,16.90
2022-10-22T11:25:46.108Z,17.60
2022-10-22T11:28:33.884Z,18.00
2022-10-22T11:31:13.838Z,21.08
2022-10-22T11:34:09.989Z,16.98
2022-10-22T11:36:44.572Z,17.52
2022-10-22T11:39:33.831Z,13.52
2022-10-22T11:42:05.518Z,13.88
2022-10-22T11:44:46.649Z,13.40
2022-10-22T11:47:27.690Z,14.77
2022-10-22T11:50:16.380Z,13.43
2022-10-22T11:53:03.723Z,16.25
2022-10-22T11:55:42.007Z,16.40
2022-10-22T11:58:29.283Z,17.05
2022-10-22T12:01:07.152Z,17.98
2022-10-22T12:03:34.665Z,18.40
2022-10-22T12:06:07.954Z,17.85
2022-10-22T12:08:44.355Z,18.15
2022-10-22T12:11:11.351Z,18.75
2022-10-22T12:14:24.070Z,17.05
2022-10-22T12:17:02.838Z,18.05
2022-10-22T12:19:47.592Z,17.83
2022-10-22T12:22:25.867Z,16.73
2022-10-22T12:24:55.111Z,18.38
2022-10-22T12:27:25.330Z,20.38
2022-10-22T12:29:58.127Z,15.88
2022-10-22T12:32:36.672Z,17.95
2022-10-22T12:35:06.952Z,18.95
2022-10-22T12:37:36.165Z,18.20
2022-10-22T12:40:20.865Z,17.50
2022-10-22T12:42:50.108Z,18.65
2022-10-22T12:45:17.922Z,29.45
2022-10-22T12:47:51.219Z,27.55
2022-10-22T12:50:21.754Z,17.83
2022-10-22T12:52:49.413Z,16.23
2022-10-22T12:55:25.178Z,16.63
2022-10-22T12:57:52.944Z,16.33
2022-10-22T13:00:23.395Z,16.33
2022-10-22T13:02:51.391Z,15.77
2022-10-22T13:05:26.206Z,13.27
2022-10-22T13:10:53.233Z,17.25
2022-10-22T13:13:39.280Z,13.68
2022-10-22T13:16:33.215Z,13.02
2022-10-22T13:19:00.347Z,14.88
2022-10-22T13:21:39.306Z,14.52
2022-10-22T13:24:24.234Z,17.17
2022-10-22T13:26:55.799Z,17.05
2022-10-22T13:29:24.224Z,16.50
2022-10-22T13:31:53.364Z,21.25
2022-10-22T13:34:23.332Z,25.85
2022-10-22T13:36:50.797Z,19.80
2022-10-22T13:39:24.661Z,20.52
2022-10-22T13:41:52.164Z,18.00
2022-10-22T13:44:19.592Z,19.52
2022-10-22T13:46:48.657Z,18.85
2022-10-22T13:49:20.850Z,20.63
2022-10-22T13:51:48.256Z,18.88
2022-10-22T13:54:21.518Z,19.67
2022-10-22T13:56:49.306Z,17.85
2022-10-22T13:59:18.509Z,22.42
2022-10-22T14:01:48.724Z,19.77
2022-10-22T14:04:16.115Z,18.23
2022-10-22T14:06:43.558Z,19.05
2022-10-22T14:09:15.715Z,17.40
2022-10-22T14:11:43.316Z,20.85
2022-10-22T14:14:10.359Z,18.35
2022-10-22T14:16:38.096Z,19.63
2022-10-22T14:19:10.696Z,22.52
2022-10-22T14:21:38.069Z,23.10
2022-10-22T14:24:08.235Z,21.23
2022-10-22T14:26:38.350Z,25.67
2022-10-22T14:29:10.138Z,23.27
2022-10-22T14:34:07.415Z,23.95
2022-10-22T14:36:34.676Z,25.35
2022-10-22T14:39:01.935Z,23.52
2022-10-22T14:41:32.055Z,24.20
2022-10-22T14:43:59.193Z,27.17
2022-10-22T14:46:26.490Z,24.15
2022-10-22T14:48:53.932Z,26.02
2022-10-22T14:51:21.905Z,24.08
2022-10-22T14:53:49.497Z,25.00
2022-10-22T14:56:20.197Z,24.75
2022-10-22T14:58:47.336Z,24.77
2022-10-22T15:01:15.021Z,26.58
2022-10-22T15:03:42.494Z,26.02
2022-10-22T15:06:09.838Z,29.98
2022-10-22T15:08:39.437Z,26.15
2022-10-22T15:11:10.892Z,27.73
2022-10-22T15:13:38.404Z,27.42
2022-10-22T15:16:07.997Z,26.98
2022-10-22T15:18:35.328Z,28.05
2022-10-22T15:21:05.393Z,26.75
2022-10-22T15:23:32.647Z,28.77
2022-10-22T15:26:00.033Z,28.05
2022-10-22T15:28:27.287Z,28.67
2022-10-22T15:31:00.229Z,28.73
2022-10-22T15:33:28.919Z,26.60
2022-10-22T15:35:57.405Z,26.65
2022-10-22T15:41:05.261Z,28.08
2022-10-22T15:43:36.294Z,26.42
2022-10-22T15:46:16.549Z,26.40
2022-10-22T15:48:44.534Z,23.85
2022-10-22T15:51:15.454Z,24.50
2022-10-22T15:53:42.723Z,23.60
2022-10-22T15:56:10.932Z,23.00
2022-10-22T15:58:41.523Z,20.35
2022-10-22T16:01:14.370Z,19.27
2022-10-22T16:03:43.095Z,18.63
2022-10-22T16:06:10.967Z,17.55
2022-10-22T16:08:39.058Z,15.38
2022-10-22T16:11:08.495Z,18.27
2022-10-22T16:13:35.687Z,16.88
2022-10-22T16:16:06.342Z,18.75
2022-10-22T16:18:39.420Z,17.25
2022-10-22T16:21:12.707Z,19.27
2022-10-22T16:23:40.366Z,20.70
2022-10-22T16:28:49.926Z,16.98
2022-10-22T16:31:21.496Z,15.13
2022-10-22T16:33:50.387Z,12.70
2022-10-22T16:36:23.041Z,13.07
2022-10-22T16:38:50.433Z,15.20
2022-10-22T16:41:24.381Z,13.30
2022-10-22T16:46:46.323Z,13.32
2022-10-22T16:49:13.800Z,13.38
2022-10-22T16:51:43.784Z,12.73
2022-10-22T16:56:57.267Z,14.93
2022-10-22T16:59:24.486Z,13.93
2022-10-22T17:04:39.024Z,13.65
2022-10-22T17:07:09.813Z,13.65
2022-10-22T17:09:37.260Z,14.70
2022-10-22T17:12:04.709Z,14.73
2022-10-22T17:14:34.470Z,13.73
2022-10-22T17:17:04.358Z,14.38
2022-10-22T17:19:31.328Z,14.57
2022-10-22T17:21:58.906Z,12.70
2022-10-22T17:24:29.676Z,15.95
2022-10-22T17:29:37.829Z,14.02
2022-10-22T17:32:05.481Z,14.35
2022-10-22T17:34:35.099Z,13.35
2022-10-22T17:37:02.440Z,17.42
2022-10-22T17:39:32.254Z,24.88
2022-10-22T17:42:02.277Z,19.83
2022-10-22T17:44:32.215Z,21.98
2022-10-22T17:47:01.812Z,20.48
2022-10-22T17:49:33.635Z,22.15
2022-10-22T17:54:28.376Z,22.90
2022-10-22T17:56:55.926Z,25.00
2022-10-22T17:59:23.277Z,23.95
2022-10-22T18:01:50.834Z,21.85
2022-10-22T18:04:19.847Z,19.70
2022-10-22T18:06:47.950Z,20.42
2022-10-22T18:09:18.530Z,20.23
2022-10-22T18:11:50.445Z,22.13
2022-10-22T18:14:22.565Z,18.23
2022-10-22T18:16:52.671Z,18.10
2022-10-22T18:19:21.198Z,19.38
2022-10-22T18:21:48.675Z,16.45
2022-10-22T18:24:16.913Z,18.52
2022-10-22T18:26:44.698Z,23.10
2022-10-22T18:29:16.124Z,16.88
2022-10-22T18:31:46.127Z,15.05
2022-10-22T18:34:20.349Z,16.45
2022-10-22T18:37:04.174Z,15.30
2022-10-22T18:39:31.308Z,15.52
2022-10-22T18:42:13.222Z,15.60
2022-10-22T18:44:40.480Z,14.30
2022-10-22T18:47:07.707Z,16.45
2022-10-22T18:49:35.195Z,16.42
2022-10-22T18:52:02.191Z,14.43
2022-10-22T18:54:29.628Z,16.40
2022-10-22T18:56:59.365Z,15.35
2022-10-22T18:59:32.061Z,15.33
2022-10-22T19:01:59.732Z,17.13
2022-10-22T19:04:36.340Z,17.65
2022-10-22T19:07:05.391Z,17.92
2022-10-22T19:09:32.719Z,17.75
2022-10-22T19:12:00.578Z,19.75
2022-10-22T19:14:33.896Z,19.55
2022-10-22T19:17:01.281Z,22.83
2022-10-22T19:19:36.856Z,20.50
2022-10-22T19:22:04.417Z,22.17
2022-10-22T19:24:31.808Z,26.05
2022-10-22T19:26:58.912Z,23.83
2022-10-22T19:29:26.534Z,31.70
2022-10-22T19:31:54.156Z,37.20
2022-10-22T19:34:21.630Z,36.72
2022-10-22T19:36:51.300Z,34.72
2022-10-22T19:39:18.734Z,31.88
2022-10-22T19:41:45.984Z,34.00
2022-10-22T19:44:23.042Z,34.63
2022-10-22T19:46:54.615Z,27.53
2022-10-22T19:49:28.297Z,25.98
2022-10-22T19:51:55.477Z,24.10
2022-10-22T19:54:23.458Z,22.42
2022-10-22T19:56:59.184Z,22.88
2022-10-22T19:59:32.343Z,24.38
2022-10-22T20:01:59.840Z,23.55
2022-10-22T20:04:37.023Z,23.25
2022-10-22T20:07:04.942Z,20.95
2022-10-22T20:09:32.998Z,23.10
2022-10-22T20:12:06.193Z,26.17
2022-10-22T20:14:48.597Z,26.45
2022-10-22T20:17:18.519Z,25.05
2022-10-22T20:19:53.411Z,25.15
2022-10-22T20:22:23.577Z,25.42
2022-10-22T20:24:51.213Z,26.70
2022-10-22T20:27:31.462Z,25.73
2022-10-22T20:30:04.439Z,22.65
2022-10-22T20:32:37.621Z,23.73
2022-10-22T20:35:06.441Z,26.27
2022-10-22T20:40:25.101Z,24.92
2022-10-22T20:42:53.182Z,23.90
2022-10-22T20:45:20.318Z,27.88
2022-10-22T20:47:51.685Z,26.58
2022-10-22T20:50:29.380Z,25.92
2022-10-22T20:53:11.403Z,28.27
2022-10-22T20:55:41.144Z,27.58
2022-10-22T20:58:14.294Z,25.80
2022-10-22T21:00:41.435Z,25.60
2022-10-22T21:06:06.398Z,24.85
2022-10-22T21:08:45.335Z,24.48
2022-10-22T21:11:12.732Z,27.42
2022-10-22T21:13:40.122Z,23.45
2022-10-22T21:16:16.688Z,24.13
2022-10-22T21:18:44.827Z,24.13
2022-10-22T21:21:14.103Z,25.95
2022-10-22T21:23:41.632Z,24.13
2022-10-22T21:26:09.329Z,24.17
2022-10-22T21:28:39.036Z,23.85
2022-10-22T21:31:24.368Z,22.63
2022-10-22T21:33:53.374Z,23.95
2022-10-22T21:36:23.142Z,25.23
2022-10-22T21:38:54.360Z,23.25
2022-10-22T21:41:23.315Z,25.67
2022-10-22T21:43:51.540Z,22.30
2022-10-22T21:46:24.378Z,21.85
2022-10-22T21:48:58.075Z,19.88
2022-10-22T21:51:26.103Z,21.02
2022-10-22T21:53:56.737Z,18.23
2022-10-22T21:59:08.214Z,18.73
2022-10-22T22:01:35.813Z,18.02
2022-10-22T22:04:07.565Z,17.85
2022-10-22T22:06:35.046Z,17.40
2022-10-22T22:09:04.475Z,17.80
2022-10-22T22:11:32.940Z,16.02
2022-10-22T22:14:00.751Z,20.05
2022-10-22T22:16:31.113Z,16.08
2022-10-22T22:19:00.729Z,16.30
2022-10-22T22:21:31.769Z,18.45
2022-10-22T22:24:00.950Z,29.50
2022-10-22T22:26:30.093Z,22.58
2022-10-22T22:28:59.219Z,18.52
2022-10-22T22:31:28.951Z,16.70
2022-10-22T22:34:07.853Z,19.25
2022-10-22T22:36:40.336Z,16.50
2022-10-22T22:39:12.252Z,17.73
2022-10-22T22:41:40.042Z,22.75
2022-10-22T22:44:10.058Z,22.52
2022-10-22T22:46:37.204Z,25.08
2022-10-22T22:49:05.486Z,23.27
2022-10-22T22:51:33.624Z,21.70
2022-10-22T22:54:01.730Z,24.27
2022-10-22T22:56:33.666Z,22.05
2022-10-22T22:59:01.224Z,23.23
2022-10-22T23:01:30.269Z,23.88
2022-10-22T23:04:00.786Z,23.40
2022-10-22T23:06:30.662Z,23.27
2022-10-22T23:08:58.717Z,20.63
2022-10-22T23:11:27.357Z,23.73
2022-10-22T23:14:00.713Z,23.67
2022-10-22T23:16:30.672Z,24.75
2022-10-22T23:19:01.403Z,19.70
2022-10-22T23:21:35.132Z,22.95
2022-10-22T23:24:05.765Z,18.75
2022-10-22T23:26:37.071Z,18.40
2022-10-22T23:29:10.388Z,17.48
2022-10-22T23:31:38.086Z,18.55
2022-10-22T23:34:07.022Z,16.65
2022-10-22T23:36:35.866Z,18.55
2022-10-22T23:39:10.027Z,17.83
2022-10-22T23:41:37.924Z,17.90
2022-10-22T23:44:08.678Z,18.13
2022-10-22T23:46:35.850Z,20.13
2022-10-22T23:49:03.153Z,18.08
2022-10-22T23:51:30.244Z,18.35
2022-10-22T23:54:03.799Z,17.67
2022-10-22T23:56:31.175Z,19.95
2022-10-22T23:58:58.953Z,20.08
